Time;durP1;ratioP1;P1;durP2;ratioP2;P2;SDS_P1;SDS_P2;PMS_P1;PMS_P2;Temp;Humidity;BMP_temperature;BMP_pressure;BME280_temperature;BME280_humidity;BME280_pressure;Samples;Min_cycle;Max_cycle;Signal;HPM_P1;HPM_P2
2023/12/10 00:01:37;;;;;;;;;;;21.60;31.50;;;;;;5015811;28;20394;-51
2023/12/10 00:04:04;;;;;;;;;;;21.50;31.50;;;;;;5016150;28;20085;-49
2023/12/10 00:06:31;;;;;;;;;;;21.60;31.60;;;;;;5015502;28;20020;-53
2023/12/10 00:08:58;;;;;;;;;;;21.60;31.60;;;;;;5015640;28;20276;-53
2023/12/10 00:11:25;;;;;;;;;;;21.50;31.50;;;;;;5016032;28;20073;-51
2023/12/10 00:13:52;;;;;;;;;;;21.50;31.50;;;;;;5015489;28;19979;-55
2023/12/10 00:16:19;;;;;;;;;;;21.50;31.60;;;;;;5015704;28;19987;-47
2023/12/10 00:18:46;;;;;;;;;;;21.50;31.60;;;;;;4997841;28;20441;-48
2023/12/10 00:21:14;;;;;;;;;;;21.50;31.50;;;;;;5015749;28;20386;-48
2023/12/10 00:23:41;;;;;;;;;;;21.50;31.50;;;;;;5015164;28;19925;-51
2023/12/10 00:26:08;;;;;;;;;;;21.50;31.60;;;;;;4996060;28;20017;-47
2023/12/10 00:28:35;;;;;;;;;;;21.50;31.60;;;;;;4995747;28;19925;-52
2023/12/10 00:31:04;;;;;;;;;;;21.50;31.50;;;;;;4995760;28;19932;-47
2023/12/10 00:33:31;;;;;;;;;;;21.50;31.60;;;;;;4995883;28;19980;-53
2023/12/10 00:35:59;;;;;;;;;;;21.50;31.60;;;;;;4996036;28;20016;-48
2023/12/10 00:38:26;;;;;;;;;;;21.50;31.60;;;;;;4995559;28;19926;-51
2023/12/10 00:40:53;;;;;;;;;;;21.50;31.60;;;;;;4995594;28;20012;-48
2023/12/10 00:43:20;;;;;;;;;;;21.50;31.60;;;;;;4995431;28;19972;-52
2023/12/10 00:45:47;;;;;;;;;;;21.50;31.60;;;;;;4995437;28;19930;-53
2023/12/10 00:48:14;;;;;;;;;;;21.50;31.60;;;;;;4995297;28;20396;-48
2023/12/10 00:50:41;;;;;;;;;;;21.50;31.60;;;;;;4995220;28;19926;-49
2023/12/10 00:53:09;;;;;;;;;;;21.50;31.60;;;;;;4995302;28;19949;-51
2023/12/10 00:55:35;;;;;;;;;;;21.50;31.60;;;;;;4995097;28;19926;-50
2023/12/10 00:58:03;;;;;;;;;;;21.50;31.60;;;;;;5006147;28;20290;-46
2023/12/10 01:00:30;;;;;;;;;;;21.50;31.60;;;;;;5014583;28;19925;-48
2023/12/10 01:02:57;;;;;;;;;;;21.50;31.50;;;;;;5014859;28;19952;-51
2023/12/10 01:05:24;;;;;;;;;;;21.50;31.60;;;;;;5015103;28;19936;-50
2023/12/10 01:07:51;;;;;;;;;;;21.50;31.60;;;;;;5014119;28;19926;-47
2023/12/10 01:10:19;;;;;;;;;;;21.50;31.60;;;;;;5014418;28;20004;-47
2023/12/10 01:12:46;;;;;;;;;;;21.50;31.60;;;;;;5014299;28;19935;-47
2023/12/10 01:15:13;;;;;;;;;;;21.50;31.60;;;;;;5014746;28;20286;-52
2023/12/10 01:17:40;;;;;;;;;;;21.40;31.50;;;;;;5014224;28;19926;-51
2023/12/10 01:20:08;;;;;;;;;;;21.50;31.60;;;;;;5014620;28;19995;-52
2023/12/10 01:22:35;;;;;;;;;;;21.40;31.80;;;;;;5013961;28;20407;-52
2023/12/10 01:25:02;;;;;;;;;;;21.40;31.50;;;;;;5014289;28;20367;-51
2023/12/10 01:27:29;;;;;;;;;;;21.50;31.60;;;;;;5014630;28;19925;-52
2023/12/10 01:29:56;;;;;;;;;;;21.40;31.50;;;;;;5014140;28;19991;-49
2023/12/10 01:32:23;;;;;;;;;;;21.40;31.60;;;;;;5014475;28;19932;-48
2023/12/10 01:34:50;;;;;;;;;;;21.40;31.60;;;;;;5013793;28;19925;-47
2023/12/10 01:37:17;;;;;;;;;;;21.40;31.60;;;;;;5014017;28;19926;-53
2023/12/10 01:39:46;;;;;;;;;;;21.40;31.60;;;;;;5019766;28;19925;-48
2023/12/10 01:42:13;;;;;;;;;;;21.40;31.60;;;;;;5018342;28;19980;-46
2023/12/10 01:44:40;;;;;;;;;;;21.40;31.60;;;;;;5012915;28;19926;-50
2023/12/10 01:47:08;;;;;;;;;;;21.40;31.60;;;;;;5014167;28;20032;-49
2023/12/10 01:49:35;;;;;;;;;;;21.40;31.60;;;;;;5014026;28;19925;-49
2023/12/10 01:52:05;;;;;;;;;;;21.40;31.60;;;;;;4996408;28;20145;-53
2023/12/10 01:54:31;;;;;;;;;;;21.40;31.60;;;;;;5013825;28;20012;-52
2023/12/10 01:56:59;;;;;;;;;;;21.40;31.60;;;;;;4996369;28;19926;-48
2023/12/10 01:59:34;;;;;;;;;;;21.40;31.60;;;;;;5013956;28;19969;-50
2023/12/10 02:02:02;;;;;;;;;;;21.40;31.60;;;;;;5013963;28;19926;-53
2023/12/10 02:04:29;;;;;;;;;;;21.40;31.60;;;;;;5013796;28;19961;-51
2023/12/10 02:06:56;;;;;;;;;;;21.40;31.60;;;;;;5013573;28;19929;-54
2023/12/10 02:09:24;;;;;;;;;;;21.40;31.70;;;;;;5013720;28;20003;-54
2023/12/10 02:11:52;;;;;;;;;;;21.40;31.70;;;;;;5013996;28;19932;-49
2023/12/10 02:14:19;;;;;;;;;;;21.40;31.60;;;;;;5013363;28;20397;-48
2023/12/10 02:16:46;;;;;;;;;;;21.40;31.60;;;;;;5013316;28;20446;-49
2023/12/10 02:19:13;;;;;;;;;;;21.40;31.60;;;;;;5013875;28;19926;-54
2023/12/10 02:21:41;;;;;;;;;;;21.40;31.60;;;;;;5030477;28;19925;-44
2023/12/10 02:24:10;;;;;;;;;;;21.40;31.60;;;;;;5029754;28;19933;-49
2023/12/10 02:26:37;;;;;;;;;;;21.40;31.60;;;;;;5013223;28;20306;-51
2023/12/10 02:29:04;;;;;;;;;;;21.40;31.60;;;;;;5013403;28;19930;-53
2023/12/10 02:31:31;;;;;;;;;;;21.40;31.60;;;;;;5013711;28;20334;-54
2023/12/10 02:33:58;;;;;;;;;;;21.40;31.60;;;;;;5013663;28;19955;-51
2023/12/10 02:36:26;;;;;;;;;;;21.40;31.70;;;;;;5013649;28;19926;-52
2023/12/10 02:38:53;;;;;;;;;;;21.40;31.60;;;;;;5013358;28;19996;-52
2023/12/10 02:41:20;;;;;;;;;;;21.40;31.60;;;;;;5013499;28;20036;-54
2023/12/10 02:43:47;;;;;;;;;;;21.40;31.70;;;;;;5013651;28;19961;-50
2023/12/10 02:46:14;;;;;;;;;;;21.40;31.60;;;;;;5013696;28;19976;-51
2023/12/10 02:48:41;;;;;;;;;;;21.40;31.60;;;;;;5017309;28;19925;-46
2023/12/10 02:51:08;;;;;;;;;;;21.30;31.60;;;;;;5017522;28;20024;-49
2023/12/10 02:53:35;;;;;;;;;;;21.30;31.60;;;;;;5000126;28;19925;-52
2023/12/10 02:56:02;;;;;;;;;;;21.30;31.60;;;;;;5017012;28;20474;-53
2023/12/10 02:58:29;;;;;;;;;;;21.30;31.60;;;;;;5016861;28;20027;-53
2023/12/10 03:00:56;;;;;;;;;;;21.30;31.60;;;;;;5017165;28;20032;-53
2023/12/10 03:03:23;;;;;;;;;;;21.30;31.60;;;;;;5017180;28;20390;-52
2023/12/10 03:05:50;;;;;;;;;;;21.30;31.60;;;;;;5016955;28;19933;-50
2023/12/10 03:08:17;;;;;;;;;;;21.30;31.60;;;;;;5017099;28;19932;-49
2023/12/10 03:10:44;;;;;;;;;;;21.30;31.60;;;;;;5016897;28;19941;-53
2023/12/10 03:13:11;;;;;;;;;;;21.30;31.60;;;;;;5016504;28;19925;-53
2023/12/10 03:15:38;;;;;;;;;;;21.30;31.60;;;;;;5016788;28;20367;-50
2023/12/10 03:18:07;;;;;;;;;;;21.30;31.60;;;;;;5016750;28;19931;-51
2023/12/10 03:20:34;;;;;;;;;;;21.30;31.60;;;;;;5016630;28;19965;-51
2023/12/10 03:23:02;;;;;;;;;;;21.30;31.80;;;;;;5016500;28;20370;-51
2023/12/10 03:25:29;;;;;;;;;;;21.30;31.60;;;;;;5016789;28;20298;-50
2023/12/10 03:27:56;;;;;;;;;;;21.30;31.60;;;;;;5016806;28;19960;-51
2023/12/10 03:30:23;;;;;;;;;;;21.30;31.60;;;;;;5016523;28;19972;-48
2023/12/10 03:32:50;;;;;;;;;;;21.30;31.60;;;;;;5016035;28;19925;-52
2023/12/10 03:35:17;;;;;;;;;;;21.30;32.20;;;;;;5016454;28;19980;-52
2023/12/10 03:37:44;;;;;;;;;;;21.30;31.60;;;;;;5016411;28;19984;-53
2023/12/10 03:40:11;;;;;;;;;;;21.30;31.70;;;;;;5016238;28;19929;-53
2023/12/10 03:42:38;;;;;;;;;;;21.30;31.70;;;;;;5016163;28;19925;-54
2023/12/10 03:45:06;;;;;;;;;;;21.30;31.70;;;;;;4998382;28;19972;-52
2023/12/10 03:47:33;;;;;;;;;;;21.30;31.70;;;;;;5015993;28;19925;-48
2023/12/10 03:50:00;;;;;;;;;;;21.30;31.70;;;;;;5016559;28;19925;-49
2023/12/10 03:52:27;;;;;;;;;;;21.30;31.70;;;;;;5015910;28;20020;-49
2023/12/10 03:54:54;;;;;;;;;;;21.30;31.70;;;;;;5015898;28;20033;-49
2023/12/10 03:57:21;;;;;;;;;;;21.30;31.70;;;;;;5015600;28;20276;-47
2023/12/10 03:59:48;;;;;;;;;;;21.30;31.70;;;;;;5015649;28;19972;-47
2023/12/10 04:02:15;;;;;;;;;;;21.30;31.70;;;;;;5015696;28;20024;-49
2023/12/10 04:04:42;;;;;;;;;;;21.30;31.70;;;;;;5015671;28;19971;-49
2023/12/10 04:07:09;;;;;;;;;;;21.30;32.20;;;;;;5016066;28;20354;-48
2023/12/10 04:09:36;;;;;;;;;;;21.30;31.70;;;;;;5015948;28;19926;-47
2023/12/10 04:12:05;;;;;;;;;;;21.30;31.70;;;;;;5015988;28;20294;-50
2023/12/10 04:14:32;;;;;;;;;;;21.30;31.70;;;;;;5016044;28;19972;-52
2023/12/10 04:16:59;;;;;;;;;;;21.30;31.70;;;;;;5015461;28;19932;-50
2023/12/10 04:19:26;;;;;;;;;;;21.30;32.20;;;;;;5015297;28;20058;-53
2023/12/10 04:21:53;;;;;;;;;;;21.30;31.70;;;;;;5015264;28;19976;-52
2023/12/10 04:24:20;;;;;;;;;;;21.30;31.70;;;;;;5009959;28;19929;-53
2023/12/10 04:26:47;;;;;;;;;;;21.20;31.70;;;;;;4995663;28;19936;-52
2023/12/10 04:29:14;;;;;;;;;;;21.30;31.70;;;;;;4996207;28;19932;-53
2023/12/10 04:31:41;;;;;;;;;;;21.30;31.80;;;;;;4995576;28;19932;-52
2023/12/10 04:34:08;;;;;;;;;;;21.20;31.70;;;;;;4995638;28;20302;-50
2023/12/10 04:36:35;;;;;;;;;;;21.20;31.70;;;;;;4995916;28;20337;-49
2023/12/10 04:39:02;;;;;;;;;;;21.20;31.70;;;;;;4995752;28;19926;-53
2023/12/10 04:41:29;;;;;;;;;;;21.20;31.60;;;;;;4995831;28;19940;-50
2023/12/10 04:43:56;;;;;;;;;;;21.20;31.50;;;;;;4995424;28;19929;-53
2023/12/10 04:46:23;;;;;;;;;;;21.20;31.50;;;;;;4995746;28;19965;-51
2023/12/10 04:48:50;;;;;;;;;;;21.20;31.50;;;;;;4995442;28;20028;-53
2023/12/10 04:51:18;;;;;;;;;;;21.30;31.60;;;;;;4995762;28;19987;-51
2023/12/10 04:53:45;;;;;;;;;;;21.30;31.60;;;;;;4995354;28;19930;-51
2023/12/10 04:56:12;;;;;;;;;;;21.30;31.50;;;;;;4996665;28;19925;-52
2023/12/10 04:58:39;;;;;;;;;;;21.30;31.50;;;;;;5033963;28;20044;-49
2023/12/10 05:01:06;;;;;;;;;;;21.30;31.50;;;;;;5034303;28;19971;-53
2023/12/10 05:03:33;;;;;;;;;;;21.40;31.50;;;;;;5034583;28;20379;-52
2023/12/10 05:06:01;;;;;;;;;;;21.40;31.40;;;;;;5034068;28;19925;-51
2023/12/10 05:08:28;;;;;;;;;;;21.40;31.40;;;;;;5013085;28;20351;-51
2023/12/10 05:10:55;;;;;;;;;;;21.50;31.40;;;;;;4994336;28;19952;-53
2023/12/10 05:13:22;;;;;;;;;;;21.50;31.30;;;;;;4984814;28;19968;-50
2023/12/10 05:15:49;;;;;;;;;;;21.60;31.30;;;;;;5014690;28;19979;-50
2023/12/10 05:18:16;;;;;;;;;;;21.60;31.20;;;;;;5014398;28;19926;-52
2023/12/10 05:20:43;;;;;;;;;;;21.70;31.20;;;;;;5014498;28;19960;-54
2023/12/10 05:23:11;;;;;;;;;;;21.70;31.10;;;;;;5026131;28;19925;-54
2023/12/10 05:25:38;;;;;;;;;;;21.70;31.00;;;;;;5026171;28;19960;-52
2023/12/10 05:28:05;;;;;;;;;;;21.80;31.00;;;;;;5014058;28;19976;-52
2023/12/10 05:30:32;;;;;;;;;;;21.80;30.90;;;;;;5026932;28;19925;-54
2023/12/10 05:33:01;;;;;;;;;;;21.90;30.90;;;;;;5033854;28;19969;-49
2023/12/10 05:35:29;;;;;;;;;;;21.90;30.80;;;;;;5034237;28;19926;-55
2023/12/10 05:37:56;;;;;;;;;;;22.00;30.80;;;;;;5034075;28;19936;-55
2023/12/10 05:40:25;;;;;;;;;;;22.00;30.70;;;;;;5033924;28;20023;-52
2023/12/10 05:42:52;;;;;;;;;;;22.10;30.70;;;;;;5033782;28;20020;-49
2023/12/10 05:45:20;;;;;;;;;;;22.10;30.60;;;;;;5033999;28;19932;-53
2023/12/10 05:47:47;;;;;;;;;;;22.20;30.60;;;;;;5033947;28;19925;-54
2023/12/10 05:50:14;;;;;;;;;;;22.20;30.50;;;;;;5033779;28;19925;-54
2023/12/10 05:52:41;;;;;;;;;;;22.30;30.50;;;;;;5033733;28;20370;-53
2023/12/10 05:55:08;;;;;;;;;;;22.30;30.40;;;;;;5033922;28;20309;-52
2023/12/10 05:57:35;;;;;;;;;;;22.40;30.40;;;;;;5033114;28;19929;-54
2023/12/10 06:00:03;;;;;;;;;;;22.40;30.30;;;;;;5033622;28;19932;-51
2023/12/10 06:02:31;;;;;;;;;;;22.50;30.30;;;;;;5022813;28;20016;-53
2023/12/10 06:04:58;;;;;;;;;;;22.50;30.30;;;;;;5013713;28;19929;-52
2023/12/10 06:07:25;;;;;;;;;;;22.50;30.20;;;;;;5013437;28;19931;-52
2023/12/10 06:09:52;;;;;;;;;;;22.50;30.10;;;;;;5013554;28;19925;-53
2023/12/10 06:12:19;;;;;;;;;;;22.60;30.10;;;;;;5013723;28;19925;-53
2023/12/10 06:14:46;;;;;;;;;;;22.60;30.10;;;;;;5013834;28;20020;-54
2023/12/10 06:17:13;;;;;;;;;;;22.70;30.10;;;;;;5013832;28;20290;-53
2023/12/10 06:19:40;;;;;;;;;;;22.70;30.00;;;;;;5013655;28;20028;-56
2023/12/10 06:22:07;;;;;;;;;;;22.70;30.00;;;;;;5013040;28;20020;-59
2023/12/10 06:24:34;;;;;;;;;;;22.70;30.00;;;;;;5013755;28;20023;-52
2023/12/10 06:27:01;;;;;;;;;;;22.80;30.00;;;;;;5013480;28;19925;-51
2023/12/10 06:29:28;;;;;;;;;;;22.80;30.00;;;;;;5013732;28;19925;-51
2023/12/10 06:31:55;;;;;;;;;;;22.80;30.00;;;;;;5013669;28;20136;-52
2023/12/10 06:34:22;;;;;;;;;;;22.80;30.10;;;;;;5013409;28;19929;-56
2023/12/10 06:36:49;;;;;;;;;;;22.90;30.00;;;;;;5013402;28;19979;-52
2023/12/10 06:39:16;;;;;;;;;;;22.80;29.90;;;;;;5013490;28;19972;-56
2023/12/10 06:41:43;;;;;;;;;;;22.90;29.90;;;;;;5013307;28;19930;-56
2023/12/10 06:44:14;;;;;;;;;;;22.90;29.90;;;;;;5013607;28;19932;-55
2023/12/10 06:46:41;;;;;;;;;;;22.90;29.80;;;;;;5013447;28;19926;-56
2023/12/10 06:49:08;;;;;;;;;;;23.00;29.90;;;;;;5013272;28;19925;-55
2023/12/10 06:51:35;;;;;;;;;;;23.00;29.80;;;;;;5013589;28;19932;-62
2023/12/10 06:54:02;;;;;;;;;;;23.00;29.80;;;;;;5013228;28;20387;-56
2023/12/10 06:56:30;;;;;;;;;;;23.10;29.80;;;;;;5013412;28;19926;-56
2023/12/10 06:58:56;;;;;;;;;;;23.10;29.70;;;;;;5013162;28;19940;-53
2023/12/10 07:01:24;;;;;;;;;;;23.10;29.90;;;;;;5011389;28;20445;-56
2023/12/10 07:03:53;;;;;;;;;;;23.10;29.70;;;;;;4976785;28;19936;-50
2023/12/10 07:06:21;;;;;;;;;;;23.20;29.70;;;;;;4993604;28;19934;-52
2023/12/10 07:08:48;;;;;;;;;;;23.20;29.70;;;;;;4993617;28;19930;-49
2023/12/10 07:11:15;;;;;;;;;;;23.20;29.70;;;;;;4992551;28;20326;-48
2023/12/10 07:13:42;;;;;;;;;;;23.30;29.60;;;;;;5032695;28;19925;-48
2023/12/10 07:16:09;;;;;;;;;;;23.30;29.60;;;;;;5032858;28;20386;-50
2023/12/10 07:18:36;;;;;;;;;;;23.30;29.60;;;;;;5032522;28;19925;-48
2023/12/10 07:21:03;;;;;;;;;;;23.30;29.60;;;;;;5032876;28;19948;-48
2023/12/10 07:23:30;;;;;;;;;;;23.30;29.60;;;;;;5032673;28;20016;-48
2023/12/10 07:25:57;;;;;;;;;;;23.30;29.60;;;;;;5015601;28;19936;-52
2023/12/10 07:28:24;;;;;;;;;;;23.30;29.50;;;;;;5032500;28;20448;-52
2023/12/10 07:30:51;;;;;;;;;;;23.40;30.00;;;;;;5032533;28;19925;-47
2023/12/10 07:33:18;;;;;;;;;;;23.40;29.50;;;;;;5033000;28;19931;-48
2023/12/10 07:35:45;;;;;;;;;;;23.40;29.50;;;;;;5036308;28;19925;-47
2023/12/10 07:38:12;;;;;;;;;;;23.40;29.50;;;;;;5036205;28;19971;-47
2023/12/10 07:40:40;;;;;;;;;;;23.40;29.50;;;;;;5036159;28;19933;-48
2023/12/10 07:43:07;;;;;;;;;;;23.40;29.50;;;;;;5035839;28;20394;-47
2023/12/10 07:45:34;;;;;;;;;;;23.40;29.50;;;;;;5036182;28;19925;-51
2023/12/10 07:48:01;;;;;;;;;;;23.40;29.50;;;;;;5035821;28;19932;-47
2023/12/10 07:50:28;;;;;;;;;;;23.50;29.50;;;;;;5035337;28;20425;-51
2023/12/10 07:52:55;;;;;;;;;;;23.50;29.40;;;;;;5036080;28;20337;-47
2023/12/10 07:55:22;;;;;;;;;;;23.50;29.90;;;;;;5036273;28;19932;-47
2023/12/10 07:57:49;;;;;;;;;;;23.50;29.40;;;;;;5001904;28;19971;-50
2023/12/10 08:00:17;;;;;;;;;;;23.60;29.40;;;;;;5035856;28;19932;-47
2023/12/10 08:02:44;;;;;;;;;;;23.60;29.40;;;;;;5022675;28;20283;-50
2023/12/10 08:05:11;;;;;;;;;;;23.60;29.40;;;;;;5016173;28;19961;-47
2023/12/10 08:07:38;;;;;;;;;;;23.60;29.40;;;;;;4998653;28;20013;-46
2023/12/10 08:10:05;;;;;;;;;;;23.60;29.40;;;;;;5016087;28;19932;-48
2023/12/10 08:12:32;;;;;;;;;;;23.60;29.30;;;;;;5015602;28;20394;-48
2023/12/10 08:15:00;;;;;;;;;;;23.70;29.30;;;;;;5015147;28;20441;-51
2023/12/10 08:17:27;;;;;;;;;;;23.70;29.30;;;;;;5016014;28;19932;-53
2023/12/10 08:19:54;;;;;;;;;;;23.70;29.30;;;;;;5015566;28;19926;-51
2023/12/10 08:22:21;;;;;;;;;;;23.70;29.30;;;;;;5015396;28;19925;-52
2023/12/10 08:24:49;;;;;;;;;;;23.70;29.20;;;;;;5015759;28;19979;-50
2023/12/10 08:27:16;;;;;;;;;;;23.70;29.30;;;;;;5015248;28;19932;-51
2023/12/10 08:29:43;;;;;;;;;;;23.70;29.20;;;;;;5015809;28;19930;-50
2023/12/10 08:32:10;;;;;;;;;;;23.70;29.20;;;;;;5015546;28;19933;-51
2023/12/10 08:34:37;;;;;;;;;;;23.80;29.20;;;;;;5015429;28;20295;-51
2023/12/10 08:37:05;;;;;;;;;;;23.80;29.20;;;;;;5015195;28;19933;-54
2023/12/10 08:39:32;;;;;;;;;;;23.80;29.20;;;;;;5015225;28;20016;-54
2023/12/10 08:41:59;;;;;;;;;;;23.80;29.20;;;;;;5015091;28;20051;-48
2023/12/10 08:44:26;;;;;;;;;;;23.90;29.20;;;;;;5015173;28;19964;-52
2023/12/10 08:46:53;;;;;;;;;;;23.90;29.20;;;;;;5015365;28;20015;-48
2023/12/10 08:49:20;;;;;;;;;;;23.90;29.20;;;;;;5015061;28;19932;-51
2023/12/10 08:51:47;;;;;;;;;;;23.90;29.10;;;;;;5015261;28;19926;-48
2023/12/10 08:54:14;;;;;;;;;;;23.90;29.10;;;;;;5014922;28;20306;-48
2023/12/10 08:56:41;;;;;;;;;;;24.00;29.10;;;;;;5014127;28;19972;-49
2023/12/10 08:59:09;;;;;;;;;;;24.00;29.00;;;;;;5014790;28;20453;-50
2023/12/10 09:01:36;;;;;;;;;;;24.10;29.00;;;;;;5014720;28;19929;-50
2023/12/10 09:04:05;;;;;;;;;;;24.10;29.00;;;;;;5014987;28;19926;-50
2023/12/10 09:06:32;;;;;;;;;;;24.10;29.00;;;;;;5014980;28;19929;-51
2023/12/10 09:08:59;;;;;;;;;;;24.10;28.90;;;;;;5014458;28;19954;-48
2023/12/10 09:11:26;;;;;;;;;;;24.10;28.90;;;;;;5014656;28;19929;-48
2023/12/10 09:13:54;;;;;;;;;;;24.20;28.90;;;;;;5014408;28;20284;-50
2023/12/10 09:16:21;;;;;;;;;;;24.20;28.90;;;;;;5014944;28;19933;-48
2023/12/10 09:18:49;;;;;;;;;;;24.20;28.90;;;;;;5014398;28;19997;-47
2023/12/10 09:21:16;;;;;;;;;;;24.30;29.00;;;;;;5014834;28;19926;-48
2023/12/10 09:23:43;;;;;;;;;;;24.30;29.00;;;;;;5014328;28;19987;-48
2023/12/10 09:26:10;;;;;;;;;;;24.30;28.90;;;;;;5014452;28;20382;-48
2023/12/10 09:28:37;;;;;;;;;;;24.30;28.80;;;;;;5014178;28;19925;-50
2023/12/10 09:31:04;;;;;;;;;;;24.30;28.80;;;;;;5014671;28;20421;-48
2023/12/10 09:33:31;;;;;;;;;;;24.40;28.80;;;;;;5008906;28;19926;-48
2023/12/10 09:35:59;;;;;;;;;;;24.40;28.70;;;;;;5012401;28;19936;-50
2023/12/10 09:38:26;;;;;;;;;;;24.50;28.80;;;;;;5014240;28;19925;-50
2023/12/10 09:40:53;;;;;;;;;;;24.50;28.70;;;;;;5014416;28;19926;-53
2023/12/10 09:43:21;;;;;;;;;;;24.50;28.70;;;;;;4996517;28;20012;-48
2023/12/10 09:45:48;;;;;;;;;;;24.50;28.70;;;;;;5014359;28;20150;-48
2023/12/10 09:48:16;;;;;;;;;;;24.60;28.60;;;;;;5013878;28;20398;-47
2023/12/10 09:50:43;;;;;;;;;;;24.60;28.60;;;;;;5013832;28;19926;-47
2023/12/10 09:53:10;;;;;;;;;;;24.70;28.60;;;;;;5013886;28;19972;-51
2023/12/10 09:55:38;;;;;;;;;;;24.70;28.60;;;;;;5013638;28;20368;-48
2023/12/10 09:58:05;;;;;;;;;;;24.70;28.50;;;;;;5013467;28;19932;-47
2023/12/10 10:00:32;;;;;;;;;;;24.80;28.50;;;;;;5013819;28;19926;-47
2023/12/10 10:03:00;;;;;;;;;;;24.80;28.50;;;;;;5013804;28;19929;-53
2023/12/10 10:05:27;;;;;;;;;;;24.80;28.50;;;;;;5014104;28;19926;-51
2023/12/10 10:07:54;;;;;;;;;;;24.90;28.50;;;;;;5013222;28;20405;-53
2023/12/10 10:10:22;;;;;;;;;;;24.90;28.40;;;;;;5013868;28;19968;-51
2023/12/10 10:12:49;;;;;;;;;;;24.90;28.40;;;;;;5013395;28;20337;-52
2023/12/10 10:15:24;;;;;;;;;;;25.00;28.40;;;;;;5013671;28;19933;-52
2023/12/10 10:17:52;;;;;;;;;;;25.00;28.30;;;;;;5013455;28;20391;-53
2023/12/10 10:20:20;;;;;;;;;;;25.10;28.30;;;;;;5013599;28;19937;-53
2023/12/10 10:22:48;;;;;;;;;;;25.10;28.30;;;;;;5013208;28;19929;-51
2023/12/10 10:25:15;;;;;;;;;;;25.10;28.30;;;;;;5013634;28;19965;-53
2023/12/10 10:27:42;;;;;;;;;;;25.20;28.30;;;;;;5013685;28;20011;-50
2023/12/10 10:30:10;;;;;;;;;;;25.20;28.30;;;;;;5013391;28;19930;-51
2023/12/10 10:32:37;;;;;;;;;;;25.20;28.30;;;;;;5013446;28;20430;-52
2023/12/10 10:35:06;;;;;;;;;;;25.20;28.30;;;;;;4996284;28;19932;-50
2023/12/10 10:37:33;;;;;;;;;;;25.20;28.20;;;;;;5013655;28;19925;-49
2023/12/10 10:40:02;;;;;;;;;;;25.20;28.20;;;;;;5013201;28;19932;-47
2023/12/10 10:42:29;;;;;;;;;;;25.20;28.20;;;;;;5013349;28;19932;-49
2023/12/10 10:44:59;;;;;;;;;;;25.30;28.20;;;;;;5013483;28;19975;-48
2023/12/10 10:47:26;;;;;;;;;;;25.30;28.20;;;;;;5013122;28;19925;-53
2023/12/10 10:49:55;;;;;;;;;;;25.40;28.20;;;;;;5013503;28;20278;-47
2023/12/10 10:52:42;;;;;;;;;;;25.30;28.10;;;;;;4998837;28;19932;-52
2023/12/10 10:55:10;;;;;;;;;;;25.40;28.20;;;;;;5013246;28;19930;-52
2023/12/10 10:57:39;;;;;;;;;;;25.40;28.10;;;;;;5013262;28;20046;-52
2023/12/10 11:00:26;;;;;;;;;;;25.40;28.10;;;;;;5013145;28;20020;-52
2023/12/10 11:02:53;;;;;;;;;;;25.50;28.10;;;;;;5006744;28;20413;-49
2023/12/10 11:05:22;;;;;;;;;;;25.50;28.10;;;;;;5013079;28;19936;-47
2023/12/10 11:07:50;;;;;;;;;;;25.50;28.10;;;;;;5014422;28;19930;-48
2023/12/10 11:10:17;;;;;;;;;;;25.50;28.10;;;;;;5016798;28;19925;-47
2023/12/10 11:12:45;;;;;;;;;;;25.50;28.10;;;;;;5016587;28;20008;-50
2023/12/10 11:15:23;;;;;;;;;;;25.60;28.10;;;;;;5016914;28;20017;-52
2023/12/10 11:17:59;;;;;;;;;;;25.60;28.10;;;;;;5016883;28;19976;-48
2023/12/10 11:20:41;;;;;;;;;;;25.60;28.10;;;;;;5016300;28;19972;-46
2023/12/10 11:23:09;;;;;;;;;;;25.60;28.10;;;;;;5016303;28;19926;-47
2023/12/10 11:25:36;;;;;;;;;;;25.60;28.10;;;;;;5016729;28;19929;-47
2023/12/10 11:28:10;;;;;;;;;;;25.60;28.10;;;;;;5016415;28;19933;-47
2023/12/10 11:30:39;;;;;;;;;;;25.70;28.10;;;;;;5016253;28;20279;-46
2023/12/10 11:33:08;;;;;;;;;;;25.70;28.10;;;;;;5016381;28;20093;-48
2023/12/10 11:35:36;;;;;;;;;;;25.70;28.10;;;;;;5016457;28;19932;-49
2023/12/10 11:38:04;;;;;;;;;;;25.70;28.10;;;;;;5016555;28;19926;-46
2023/12/10 11:40:32;;;;;;;;;;;25.70;28.10;;;;;;5016194;28;19926;-51
2023/12/10 11:43:06;;;;;;;;;;;25.70;28.10;;;;;;5015632;28;19933;-46
2023/12/10 11:45:33;;;;;;;;;;;25.70;28.10;;;;;;5016166;28;19926;-48
2023/12/10 11:48:07;;;;;;;;;;;25.70;28.10;;;;;;5016222;28;19926;-49
2023/12/10 11:50:36;;;;;;;;;;;25.70;28.10;;;;;;5016389;28;19925;-45
2023/12/10 11:53:04;;;;;;;;;;;25.80;28.10;;;;;;5015840;28;19926;-46
2023/12/10 11:55:31;;;;;;;;;;;25.80;28.10;;;;;;5016006;28;19931;-51
2023/12/10 11:57:58;;;;;;;;;;;25.80;28.10;;;;;;5016044;28;19925;-49
2023/12/10 12:00:26;;;;;;;;;;;25.80;28.00;;;;;;5015865;28;19932;-50
2023/12/10 12:02:53;;;;;;;;;;;25.90;28.10;;;;;;5015788;28;19925;-47
2023/12/10 12:05:20;;;;;;;;;;;25.90;28.10;;;;;;5007767;28;19925;-53
2023/12/10 12:07:48;;;;;;;;;;;25.90;28.10;;;;;;5015552;28;19925;-49
2023/12/10 12:10:17;;;;;;;;;;;25.90;28.10;;;;;;5015785;28;19925;-53
2023/12/10 12:12:46;;;;;;;;;;;25.90;28.10;;;;;;5015902;28;19925;-52
2023/12/10 12:15:14;;;;;;;;;;;25.90;28.10;;;;;;5015820;28;20283;-53
2023/12/10 12:17:41;;;;;;;;;;;25.80;28.00;;;;;;5015945;28;20353;-50
2023/12/10 12:20:13;;;;;;;;;;;25.90;28.10;;;;;;5015363;28;20287;-50
2023/12/10 12:22:40;;;;;;;;;;;25.90;28.10;;;;;;5009323;28;19933;-52
2023/12/10 12:25:07;;;;;;;;;;;25.90;28.10;;;;;;4994574;28;20413;-55
2023/12/10 12:27:34;;;;;;;;;;;25.90;28.10;;;;;;5015363;28;20363;-49
2023/12/10 12:30:01;;;;;;;;;;;25.80;28.10;;;;;;5008119;28;20235;-51
2023/12/10 12:32:28;;;;;;;;;;;25.80;28.10;;;;;;4995915;28;19926;-52
2023/12/10 12:35:01;;;;;;;;;;;25.80;28.10;;;;;;4998227;28;20025;-54
2023/12/10 12:37:28;;;;;;;;;;;25.80;28.20;;;;;;4995641;28;19965;-55
2023/12/10 12:39:55;;;;;;;;;;;25.80;28.20;;;;;;5002772;28;20276;-48
2023/12/10 12:42:26;;;;;;;;;;;25.80;28.20;;;;;;5015156;28;20448;-51
2023/12/10 12:44:54;;;;;;;;;;;25.80;28.20;;;;;;5015195;28;19925;-53
2023/12/10 12:47:21;;;;;;;;;;;25.80;28.20;;;;;;5015330;28;20316;-50
2023/12/10 12:49:48;;;;;;;;;;;25.80;28.20;;;;;;5014929;28;19926;-52
2023/12/10 12:52:15;;;;;;;;;;;25.80;28.10;;;;;;5015201;28;19925;-49
2023/12/10 12:54:42;;;;;;;;;;;25.80;28.30;;;;;;5014861;28;19925;-53
2023/12/10 12:57:11;;;;;;;;;;;25.80;28.10;;;;;;5014930;28;20334;-51
2023/12/10 12:59:38;;;;;;;;;;;25.70;28.10;;;;;;5015191;28;19929;-48
2023/12/10 13:02:05;;;;;;;;;;;25.70;28.10;;;;;;5015048;28;20441;-53
2023/12/10 13:04:32;;;;;;;;;;;25.70;28.10;;;;;;5014925;28;19961;-49
2023/12/10 13:07:01;;;;;;;;;;;25.70;28.20;;;;;;5014725;28;19936;-53
2023/12/10 13:09:29;;;;;;;;;;;25.70;28.20;;;;;;5014645;28;19925;-48
2023/12/10 13:11:59;;;;;;;;;;;25.70;28.20;;;;;;5014959;28;19925;-47
2023/12/10 13:14:26;;;;;;;;;;;25.70;28.20;;;;;;5014290;28;20260;-47
2023/12/10 13:16:53;;;;;;;;;;;25.70;28.20;;;;;;5014337;28;19933;-47
2023/12/10 13:19:21;;;;;;;;;;;25.70;28.20;;;;;;5014464;28;19976;-50
2023/12/10 13:21:50;;;;;;;;;;;25.70;28.30;;;;;;5014659;28;19925;-47
2023/12/10 13:24:17;;;;;;;;;;;25.70;28.30;;;;;;5014192;28;19929;-49
2023/12/10 13:26:44;;;;;;;;;;;25.70;28.30;;;;;;5014627;28;19977;-53
2023/12/10 13:29:11;;;;;;;;;;;25.60;28.20;;;;;;5033834;28;20039;-50
2023/12/10 13:31:38;;;;;;;;;;;25.60;28.30;;;;;;5033145;28;19925;-50
2023/12/10 13:34:06;;;;;;;;;;;25.60;28.30;;;;;;5034005;28;19929;-48
2023/12/10 13:36:35;;;;;;;;;;;25.60;28.30;;;;;;5033901;28;20008;-46
2023/12/10 13:39:03;;;;;;;;;;;25.60;28.30;;;;;;5021214;28;19965;-46
2023/12/10 13:41:30;;;;;;;;;;;25.60;28.30;;;;;;5014238;28;20364;-46
2023/12/10 13:43:57;;;;;;;;;;;25.60;28.30;;;;;;5013844;28;20020;-47
2023/12/10 13:46:25;;;;;;;;;;;25.60;28.40;;;;;;5014271;28;19929;-46
2023/12/10 13:48:52;;;;;;;;;;;25.50;28.30;;;;;;5013840;28;19929;-48
2023/12/10 13:51:20;;;;;;;;;;;25.50;28.30;;;;;;5014268;28;19925;-50
2023/12/10 13:53:47;;;;;;;;;;;25.50;28.30;;;;;;5013816;28;19933;-47
2023/12/10 13:56:14;;;;;;;;;;;25.50;28.30;;;;;;5014015;28;19925;-54
2023/12/10 13:58:41;;;;;;;;;;;25.50;28.30;;;;;;5013514;28;19925;-47
2023/12/10 14:01:08;;;;;;;;;;;25.50;28.40;;;;;;5013788;28;19969;-50
2023/12/10 14:03:35;;;;;;;;;;;25.50;28.40;;;;;;5013564;28;19932;-53
2023/12/10 14:06:04;;;;;;;;;;;25.50;28.40;;;;;;5014445;28;19925;-51
2023/12/10 14:08:32;;;;;;;;;;;25.50;28.40;;;;;;5033522;28;19935;-51
2023/12/10 14:10:59;;;;;;;;;;;25.50;28.40;;;;;;4993857;28;19930;-53
2023/12/10 14:13:26;;;;;;;;;;;25.40;28.40;;;;;;4994092;28;20017;-52
2023/12/10 14:15:54;;;;;;;;;;;25.40;28.40;;;;;;4994008;28;19933;-53
2023/12/10 14:18:22;;;;;;;;;;;25.40;28.40;;;;;;5004968;28;20417;-51